Time;durP1;ratioP1;P1;durP2;ratioP2;P2;SDS_P1;SDS_P2;PMS_P1;PMS_P2;Temp;Humidity;BMP_temperature;BMP_pressure;BME280_temperature;BME280_humidity;BME280_pressure;Samples;Min_cycle;Max_cycle;Signal;HPM_P1;HPM_P2
2022/12/27 00:01:11;;;;;;;11.52;3.70;;;;;;;2.22;100.00;101937.44;5070661;28;20051;-57
2022/12/27 00:03:40;;;;;;;14.75;3.70;;;;;;;2.25;100.00;101947.81;5071367;28;20064;-53
2022/12/27 00:06:09;;;;;;;12.23;3.97;;;;;;;2.24;100.00;101942.66;5073199;28;20049;-50
2022/12/27 00:08:37;;;;;;;12.50;4.15;;;;;;;2.22;100.00;101949.56;5073312;28;20059;-49
2022/12/27 00:11:07;;;;;;;10.20;3.95;;;;;;;2.19;100.00;101945.28;5073355;28;20123;-57
2022/12/27 00:13:36;;;;;;;10.48;3.80;;;;;;;2.17;100.00;101952.25;5072488;28;20044;-52
2022/12/27 00:16:08;;;;;;;11.48;3.95;;;;;;;2.23;100.00;101959.09;5069058;28;20040;-52
2022/12/27 00:18:36;;;;;;;;;;;;;;;2.22;100.00;101959.97;5069917;28;20052;-51
2022/12/27 00:21:05;;;;;;;8.30;3.50;;;;;;;2.22;100.00;101963.41;5073304;28;19982;-53
2022/12/27 00:23:36;;;;;;;11.10;4.30;;;;;;;2.22;100.00;101971.19;5073233;28;20106;-49
2022/12/27 00:26:06;;;;;;;13.73;4.10;;;;;;;2.22;100.00;101959.97;5069301;28;20102;-49
2022/12/27 00:28:35;;;;;;;13.15;4.05;;;;;;;2.20;100.00;101963.44;5069868;28;20052;-52
2022/12/27 00:31:06;;;;;;;9.93;3.97;;;;;;;2.18;100.00;101964.31;5072581;28;20503;-58
2022/12/27 00:33:36;;;;;;;14.00;4.35;;;;;;;2.17;100.00;101971.25;5070537;28;20414;-57
2022/12/27 00:36:07;;;;;;;15.02;4.30;;;;;;;2.18;100.00;101977.31;5070755;28;20116;-57
2022/12/27 00:38:36;;;;;;;12.52;4.57;;;;;;;2.17;100.00;101980.81;5070934;28;20052;-57
2022/12/27 00:41:06;;;;;;;12.05;4.63;;;;;;;2.15;100.00;101980.78;5071375;28;20139;-57
2022/12/27 00:43:35;;;;;;;9.27;3.80;;;;;;;2.16;100.00;101987.69;5072982;28;20123;-57
2022/12/27 00:46:04;;;;;;;8.48;3.38;;;;;;;2.15;100.00;101975.59;5072881;28;20044;-57
2022/12/27 00:48:34;;;;;;;10.65;4.07;;;;;;;2.14;100.00;101986.88;5072755;28;20056;-57
2022/12/27 00:51:04;;;;;;;12.93;4.35;;;;;;;2.12;100.00;101978.25;5070966;28;20139;-57
2022/12/27 00:53:34;;;;;;;11.45;4.00;;;;;;;2.11;100.00;101971.31;5070875;28;20426;-57
2022/12/27 00:56:07;;;;;;;14.38;4.43;;;;;;;2.14;100.00;101981.69;5072699;28;20044;-57
2022/12/27 00:58:35;;;;;;;;;;;;;;;2.11;100.00;101976.50;5073180;28;20052;-57
2022/12/27 01:01:09;;;;;;;11.82;3.90;;;;;;;2.10;100.00;101980.00;5072793;28;20375;-56
2022/12/27 01:03:39;;;;;;;9.00;3.97;;;;;;;2.07;100.00;101985.22;5072615;28;20090;-57
2022/12/27 01:06:09;;;;;;;14.40;4.30;;;;;;;2.04;100.00;101990.44;5072696;28;20041;-57
2022/12/27 01:08:38;;;;;;;12.85;4.30;;;;;;;2.07;100.00;101989.56;5070906;28;20045;-56
2022/12/27 01:11:07;;;;;;;12.00;4.47;;;;;;;2.07;100.00;102000.78;5069698;28;20052;-56
2022/12/27 01:13:37;;;;;;;11.50;4.95;;;;;;;2.05;100.00;101997.34;5072284;28;20112;-58
2022/12/27 01:16:10;;;;;;;11.93;5.20;;;;;;;2.05;100.00;102002.56;5069816;28;20105;-57
2022/12/27 01:18:40;;;;;;;16.17;4.60;;;;;;;2.01;100.00;102003.47;5070438;28;20071;-57
2022/12/27 01:21:09;;;;;;;13.80;5.07;;;;;;;2.06;100.00;102008.59;5072631;28;20040;-57
2022/12/27 01:23:40;;;;;;;13.48;4.53;;;;;;;2.01;100.00;102008.66;5072247;28;20041;-57
2022/12/27 01:26:11;;;;;;;14.57;4.55;;;;;;;2.00;100.00;102009.53;5071529;28;20051;-57
2022/12/27 01:28:39;;;;;;;17.10;5.47;;;;;;;2.05;100.00;102014.69;5072007;28;20044;-57
2022/12/27 01:31:11;;;;;;;17.13;4.70;;;;;;;2.06;100.00;102019.84;5072439;28;20424;-57
2022/12/27 01:33:41;;;;;;;10.70;5.05;;;;;;;2.05;100.00;102020.72;5069823;28;20045;-57
2022/12/27 01:36:12;;;;;;;14.18;4.93;;;;;;;2.01;100.00;102021.63;5070817;28;20418;-57
2022/12/27 01:38:44;;;;;;;13.57;4.82;;;;;;;2.03;100.00;102020.75;5072297;28;20123;-57
2022/12/27 01:44:00;;;;;;;11.35;5.53;;;;;;;2.00;100.00;102017.31;5059998;28;20059;-57
2022/12/27 01:46:30;;;;;;;12.88;5.00;;;;;;;2.01;100.00;102026.81;5075689;28;20063;-57
2022/12/27 01:49:00;;;;;;;13.27;4.75;;;;;;;2.04;100.00;102029.38;5075988;28;20056;-57
2022/12/27 01:51:32;;;;;;;16.92;5.20;;;;;;;2.02;100.00;102036.31;5076129;28;20095;-57
2022/12/27 01:54:00;;;;;;;11.82;4.82;;;;;;;2.07;100.00;102031.94;5076016;28;20495;-57
2022/12/27 01:56:31;;;;;;;12.73;4.95;;;;;;;2.10;100.00;102037.09;5074876;28;20040;-57
2022/12/27 01:59:02;;;;;;;12.27;4.78;;;;;;;2.13;100.00;102044.84;5074021;28;20059;-57
2022/12/27 02:01:35;;;;;;;14.52;4.70;;;;;;;2.13;100.00;102039.66;5073709;28;20075;-57
2022/12/27 02:04:07;;;;;;;;;;;;;;;2.12;100.00;102042.28;5076362;28;20047;-56
2022/12/27 02:06:37;;;;;;;12.98;4.55;;;;;;;2.08;100.00;102044.03;5075043;28;19926;-57
2022/12/27 02:09:13;;;;;;;12.18;4.78;;;;;;;2.03;100.00;102051.00;5073477;28;20059;-57
2022/12/27 02:11:52;;;;;;;10.52;4.22;;;;;;;2.07;100.00;102049.25;5075066;28;20059;-56
2022/12/27 02:14:23;;;;;;;14.15;4.93;;;;;;;2.07;100.00;102059.63;5075188;28;20147;-57
2022/12/27 02:16:57;;;;;;;11.75;4.22;;;;;;;2.09;100.00;102069.13;5074948;28;20125;-57
2022/12/27 02:19:38;;;;;;;15.10;5.03;;;;;;;2.10;100.00;102065.66;5074084;28;20139;-57
2022/12/27 02:26:01;;;;;;;12.00;4.82;;;;;;;2.20;100.00;102102.75;4992477;28;20042;-56
2022/12/27 02:29:05;;;;;;;10.95;4.82;;;;;;;2.24;100.00;102125.22;4993904;28;20144;-55
2022/12/27 02:31:41;;;;;;;11.85;5.43;;;;;;;2.24;100.00;102116.56;4971484;28;20157;-54
2022/12/27 02:34:15;;;;;;;15.95;5.90;;;;;;;2.35;100.00;102112.13;5059767;28;20499;-50
2022/12/27 02:36:45;;;;;;;16.60;5.60;;;;;;;2.34;100.00;102100.84;5075074;28;20463;-54
2022/12/27 02:39:15;;;;;;;11.20;5.07;;;;;;;2.36;100.00;102093.09;5075060;28;20046;-51
2022/12/27 02:53:06;;;;;;;16.30;7.88;;;;;;;2.51;100.00;102076.47;5073598;28;20364;-53
2022/12/27 02:58:40;;;;;;;14.25;6.97;;;;;;;2.48;100.00;102069.56;5075296;28;20045;-56
2022/12/27 03:04:20;;;;;;;12.55;5.60;;;;;;;2.43;100.00;102076.53;5074582;28;20049;-53
2022/12/27 03:07:03;;;;;;;9.88;4.90;;;;;;;2.42;100.00;102080.00;5073275;28;20052;-52
2022/12/27 03:16:01;;;;;;;10.05;3.72;;;;;;;2.45;100.00;102066.13;5073133;28;20045;-53
2022/12/27 03:18:49;;;;;;;14.27;4.45;;;;;;;2.39;100.00;102072.28;5071901;28;20122;-55
2022/12/27 03:27:04;;;;;;;11.30;4.50;;;;;;;2.37;100.00;102081.78;5043626;28;20053;-55
2022/12/27 03:35:12;;;;;;;11.77;3.72;;;;;;;2.35;100.00;102096.53;5073864;28;20468;-55
2022/12/27 03:38:03;;;;;;;9.52;4.25;;;;;;;2.32;100.00;102086.19;5073825;28;20056;-55
2022/12/27 03:40:40;;;;;;;9.00;4.00;;;;;;;2.34;100.00;102085.28;5073664;28;20098;-53
2022/12/27 03:43:11;;;;;;;13.10;4.63;;;;;;;2.33;100.00;102088.78;5073680;28;20040;-50
2022/12/27 03:48:53;;;;;;;12.57;4.50;;;;;;;2.45;100.00;102082.56;5069844;28;20049;-52
2022/12/27 03:51:24;;;;;;;12.00;4.75;;;;;;;2.45;100.00;102092.09;5071802;28;20036;-53
2022/12/27 03:54:00;;;;;;;12.07;5.10;;;;;;;2.45;100.00;102086.91;5073374;28;20048;-51
2022/12/27 03:56:29;;;;;;;11.77;5.07;;;;;;;2.43;100.00;102089.53;5073373;28;20544;-51
2022/12/27 03:58:59;;;;;;;12.00;5.45;;;;;;;2.40;100.00;102086.97;5073497;28;20155;-51
2022/12/27 04:01:27;;;;;;;10.63;5.47;;;;;;;2.45;100.00;102084.31;5069804;28;20226;-51
2022/12/27 04:03:56;;;;;;;21.42;6.75;;;;;;;2.42;100.00;102092.16;5070089;28;20045;-50
2022/12/27 04:06:26;;;;;;;16.13;5.70;;;;;;;2.39;100.00;102095.63;5072501;28;20055;-50
2022/12/27 04:36:32;;;;;;;13.23;5.20;;;;;;;2.25;100.00;102108.78;5070213;28;20411;-49
2022/12/27 04:39:01;;;;;;;16.73;4.82;;;;;;;2.27;100.00;102109.59;5073189;28;20048;-53
2022/12/27 04:55:20;;;;;;;14.50;4.80;;;;;;;2.21;100.00;102109.69;5072546;28;20575;-49
2022/12/27 04:57:51;;;;;;;15.48;4.57;;;;;;;2.23;100.00;102113.09;5070535;28;20102;-51
2022/12/27 05:03:10;;;;;;;10.57;3.78;;;;;;;2.18;100.00;102109.69;5071723;28;20064;-57
2022/12/27 05:05:39;;;;;;;12.88;4.80;;;;;;;2.22;100.00;102119.16;5068994;28;20048;-57
2022/12/27 05:16:25;;;;;;;15.48;4.40;;;;;;;2.20;100.00;102132.16;5071892;28;20552;-50
2022/12/27 05:18:54;;;;;;;10.23;3.80;;;;;;;2.21;100.00;102143.44;5069992;28;20044;-51
2022/12/27 05:21:22;;;;;;;11.63;4.45;;;;;;;2.23;100.00;102143.41;5072204;28;20515;-51
2022/12/27 05:26:37;;;;;;;14.45;4.43;;;;;;;2.18;100.00;102152.09;5075916;28;20453;-53
2022/12/27 05:29:08;;;;;;;10.50;4.38;;;;;;;2.18;100.00;102152.09;5075888;28;20052;-51
2022/12/27 05:31:36;;;;;;;14.30;5.00;;;;;;;2.17;100.00;102155.56;5075893;28;20052;-48
2022/12/27 05:34:05;;;;;;;10.35;3.85;;;;;;;2.17;100.00;102155.56;5074963;28;20415;-52
2022/12/27 05:36:34;;;;;;;13.25;4.07;;;;;;;2.15;100.00;102162.47;5075654;28;20089;-52
2022/12/27 05:39:02;;;;;;;13.73;3.72;;;;;;;2.13;100.00;102164.25;5072409;28;20415;-52
2022/12/27 05:41:30;;;;;;;11.65;3.95;;;;;;;2.06;100.00;102160.00;5073627;28;20044;-53
2022/12/27 05:43:58;;;;;;;12.30;4.03;;;;;;;2.07;100.00;102164.28;5075968;28;20135;-53
2022/12/27 05:46:35;;;;;;;10.80;4.13;;;;;;;2.05;100.00;102163.47;5070945;28;20048;-53
2022/12/27 05:49:06;;;;;;;14.63;4.05;;;;;;;2.06;100.00;102167.78;5072878;28;20066;-50
2022/12/27 05:51:34;;;;;;;13.40;4.47;;;;;;;2.12;100.00;102167.72;5075722;28;20044;-50
2022/12/27 05:54:02;;;;;;;16.40;4.07;;;;;;;2.14;100.00;102165.97;5075606;28;20056;-50
2022/12/27 05:56:30;;;;;;;14.98;4.60;;;;;;;2.12;100.00;102172.06;5075681;28;20076;-50
2022/12/27 05:58:58;;;;;;;10.52;4.05;;;;;;;2.11;100.00;102162.53;5075607;28;20044;-50
2022/12/27 06:01:26;;;;;;;11.18;3.90;;;;;;;2.07;100.00;102164.28;5075237;28;20046;-49
2022/12/27 06:03:58;;;;;;;15.02;4.40;;;;;;;2.09;100.00;102167.75;5072379;28;20098;-52
2022/12/27 06:06:26;;;;;;;16.83;4.53;;;;;;;2.11;100.00;102176.38;5073375;28;20127;-52
2022/12/27 06:08:55;;;;;;;9.70;4.00;;;;;;;2.10;100.00;102179.88;5073189;28;20662;-52
2022/12/27 06:11:23;;;;;;;13.00;4.10;;;;;;;2.13;100.00;102173.78;5071870;28;20044;-51
2022/12/27 06:13:53;;;;;;;11.93;3.97;;;;;;;2.15;100.00;102180.66;5074458;28;20048;-53
2022/12/27 06:16:22;;;;;;;12.05;3.85;;;;;;;2.14;100.00;102178.97;5071907;28;20056;-57
2022/12/27 06:18:50;;;;;;;11.45;3.33;;;;;;;2.22;100.00;102198.78;5073685;28;20568;-57
2022/12/27 06:21:21;;;;;;;11.30;3.90;;;;;;;2.14;100.00;102194.53;5075462;28;20036;-57
2022/12/27 06:23:50;;;;;;;14.43;4.32;;;;;;;2.16;100.00;102197.97;5075456;28;20049;-58
2022/12/27 06:26:20;;;;;;;12.00;3.80;;;;;;;2.13;100.00;102195.41;5075291;28;20052;-57
2022/12/27 06:28:49;;;;;;;13.30;3.95;;;;;;;2.11;100.00;102199.72;5075454;28;20107;-57
2022/12/27 06:31:19;;;;;;;13.35;4.10;;;;;;;2.07;100.00;102204.97;5075307;28;20040;-57
2022/12/27 06:33:48;;;;;;;11.98;3.60;;;;;;;2.08;100.00;102193.72;5075365;28;20044;-58
2022/12/27 06:36:19;;;;;;;12.13;4.10;;;;;;;2.12;100.00;102196.25;5075101;28;20041;-57
2022/12/27 06:38:48;;;;;;;13.75;3.88;;;;;;;2.12;100.00;102192.81;5072698;28;20056;-57
2022/12/27 06:41:18;;;;;;;10.30;3.10;;;;;;;2.07;100.00;102195.44;5072327;28;20059;-57
2022/12/27 06:43:47;;;;;;;12.95;3.30;;;;;;;2.06;100.00;102192.84;5074632;28;20525;-57
2022/12/27 06:46:17;;;;;;;9.80;3.38;;;;;;;2.03;100.00;102194.63;5074624;28;20122;-58
2022/12/27 06:48:46;;;;;;;8.88;3.17;;;;;;;2.01;100.00;102198.09;5074658;28;20052;-58
2022/12/27 06:51:16;;;;;;;8.93;3.38;;;;;;;2.01;100.00;102201.53;5074860;28;20491;-57
2022/12/27 06:53:44;;;;;;;15.73;3.95;;;;;;;2.01;100.00;102191.16;5072221;28;20056;-57
2022/12/27 06:56:15;;;;;;;8.25;3.50;;;;;;;1.98;100.00;102200.72;5071935;28;20063;-51
2022/12/27 06:58:44;;;;;;;13.60;3.80;;;;;;;1.99;100.00;102207.59;5073907;28;20373;-51
2022/12/27 07:01:14;;;;;;;12.40;3.67;;;;;;;2.00;100.00;102204.16;5074332;28;20045;-53
2022/12/27 07:03:43;;;;;;;8.43;3.65;;;;;;;2.03;100.00;102219.69;5071468;28;20172;-50
2022/12/27 07:06:11;;;;;;;15.75;4.43;;;;;;;2.03;100.00;102217.09;5071591;28;20052;-49
2022/12/27 07:08:40;;;;;;;11.43;3.60;;;;;;;2.01;100.00;102224.91;5074531;28;20117;-49
2022/12/27 07:11:11;;;;;;;10.73;3.97;;;;;;;1.98;100.00;102227.53;5072853;28;20044;-49
2022/12/27 07:13:42;;;;;;;12.38;3.85;;;;;;;1.97;100.00;102230.97;5070923;28;20070;-52
2022/12/27 07:16:12;;;;;;;11.00;3.95;;;;;;;1.99;100.00;102230.97;5073869;28;20036;-51
2022/12/27 07:18:41;;;;;;;16.48;3.90;;;;;;;1.95;100.00;102237.06;5074372;28;20450;-50
2022/12/27 07:21:11;;;;;;;14.35;4.40;;;;;;;1.92;100.00;102237.09;5074356;28;20044;-52
2022/12/27 07:23:40;;;;;;;11.25;3.97;;;;;;;1.99;100.00;102236.16;5074084;28;20044;-50
2022/12/27 07:26:10;;;;;;;10.75;4.07;;;;;;;1.96;100.00;102241.38;5072735;28;20442;-51
2022/12/27 07:28:40;;;;;;;10.95;3.83;;;;;;;1.96;100.00;102243.97;5073986;28;20507;-52
2022/12/27 07:31:10;;;;;;;13.30;4.40;;;;;;;1.94;100.00;102243.97;5069633;28;20536;-51
2022/12/27 07:33:38;;;;;;;13.05;4.00;;;;;;;1.92;100.00;102243.13;5071009;28;20438;-50
2022/12/27 07:36:09;;;;;;;13.93;4.05;;;;;;;1.95;100.00;102247.44;5073787;28;20060;-50
2022/12/27 07:38:37;;;;;;;10.80;3.78;;;;;;;1.95;100.00;102257.81;5073715;28;20415;-49
2022/12/27 07:41:06;;;;;;;10.00;4.30;;;;;;;1.93;100.00;102250.03;5073635;28;20083;-53
2022/12/27 07:43:35;;;;;;;13.93;4.10;;;;;;;1.96;100.00;102257.78;5071605;28;20123;-53
2022/12/27 07:46:07;;;;;;;14.55;4.28;;;;;;;1.96;100.00;102268.19;5071750;28;20055;-48
2022/12/27 07:48:36;;;;;;;12.35;4.00;;;;;;;1.95;100.00;102257.81;5069649;28;20053;-53
2022/12/27 07:51:05;;;;;;;8.82;3.85;;;;;;;1.92;100.00;102263.88;5071997;28;20487;-51
2022/12/27 07:53:34;;;;;;;11.00;4.30;;;;;;;1.90;100.00;102267.38;5073521;28;20051;-51
2022/12/27 07:56:07;;;;;;;9.07;3.60;;;;;;;1.92;100.00;102273.41;5073405;28;20121;-49
2022/12/27 07:58:40;;;;;;;10.35;3.70;;;;;;;1.89;100.00;102265.66;5072621;28;20471;-51
2022/12/27 08:01:11;;;;;;;12.65;4.35;;;;;;;1.87;100.00;102281.22;5067439;28;20055;-51
2022/12/27 08:03:40;;;;;;;11.30;4.37;;;;;;;1.84;100.00;102282.09;5072066;28;20507;-50
2022/12/27 08:06:20;;;;;;;9.43;4.18;;;;;;;1.83;100.00;102282.97;5073215;28;20068;-49
2022/12/27 08:08:49;;;;;;;13.05;4.68;;;;;;;1.83;100.00;102282.97;5069164;28;20053;-53
2022/12/27 08:11:18;;;;;;;11.70;4.80;;;;;;;1.88;100.00;102287.28;5071145;28;20056;-57
2022/12/27 08:13:46;;;;;;;14.50;5.20;;;;;;;1.86;100.00;102297.66;5070427;28;20053;-57
2022/12/27 08:16:19;;;;;;;12.73;5.07;;;;;;;1.89;100.00;102292.44;5068746;28;20041;-58
2022/12/27 08:18:48;;;;;;;13.77;5.18;;;;;;;1.90;100.00;102291.59;5072026;28;20045;-57
2022/12/27 08:21:17;;;;;;;12.38;5.90;;;;;;;1.93;100.00;102296.75;5072815;28;20074;-58
2022/12/27 08:23:45;;;;;;;13.48;5.68;;;;;;;1.98;100.00;102300.19;5073082;28;20565;-57
2022/12/27 08:26:13;;;;;;;12.13;5.55;;;;;;;2.00;100.00;102302.75;5073157;28;20044;-58
2022/12/27 08:28:41;;;;;;;16.38;6.45;;;;;;;2.06;100.00;102305.34;5073048;28;20052;-57
2022/12/27 08:31:11;;;;;;;19.48;5.68;;;;;;;2.09;100.00;102294.09;5072625;28;20048;-57
2022/12/27 08:33:43;;;;;;;12.15;5.50;;;;;;;2.12;100.00;102297.50;5071780;28;20054;-57
2022/12/27 08:36:13;;;;;;;16.35;5.38;;;;;;;2.16;100.00;102298.34;5071741;28;20048;-57
2022/12/27 08:39:01;;;;;;;12.63;6.22;;;;;;;2.24;100.00;102308.69;5068583;28;20087;-59
2022/12/27 08:41:29;;;;;;;15.32;6.65;;;;;;;2.30;100.00;102301.69;5071614;28;20570;-59
2022/12/27 08:43:57;;;;;;;13.82;5.60;;;;;;;2.39;100.00;102315.47;5072721;28;20044;-58
2022/12/27 08:46:25;;;;;;;18.75;5.72;;;;;;;2.46;100.00;102322.38;5071680;28;20041;-58
2022/12/27 08:48:55;;;;;;;17.73;6.60;;;;;;;2.52;100.00;102323.19;5070006;28;20083;-58
2022/12/27 08:51:24;;;;;;;14.70;6.38;;;;;;;2.61;100.00;102321.41;5071250;28;20063;-57
2022/12/27 08:54:05;;;;;;;14.63;7.07;;;;;;;2.65;100.00;102323.09;5072324;28;20040;-58
2022/12/27 08:56:33;;;;;;;19.33;7.53;;;;;;;2.69;100.00;102317.84;5072329;28;20507;-58
2022/12/27 08:59:02;;;;;;;16.65;6.88;;;;;;;2.71;100.00;102302.25;5073141;28;20075;-58
2022/12/27 09:01:30;;;;;;;15.88;6.45;;;;;;;2.75;100.00;102309.13;5072037;28;20449;-58
2022/12/27 09:04:00;;;;;;;17.38;6.10;;;;;;;2.78;100.00;102303.03;5072649;28;20405;-55
2022/12/27 09:06:28;;;;;;;14.57;6.13;;;;;;;2.87;100.00;102302.97;5072754;28;20040;-56
2022/12/27 09:08:58;;;;;;;15.20;6.10;;;;;;;2.84;100.00;102298.66;5072546;28;20146;-55
2022/12/27 09:11:28;;;;;;;16.20;6.18;;;;;;;2.89;100.00;102296.03;5073102;28;20041;-52
2022/12/27 09:13:59;;;;;;;16.63;6.10;;;;;;;2.90;100.00;102302.94;5072782;28;20055;-54
2022/12/27 09:16:29;;;;;;;15.18;6.10;;;;;;;2.95;100.00;102302.91;5072025;28;20037;-55
2022/12/27 09:18:59;;;;;;;12.82;5.63;;;;;;;2.95;100.00;102305.50;5072050;28;20091;-55
2022/12/27 09:21:30;;;;;;;18.65;6.15;;;;;;;3.00;100.00;102311.50;5071703;28;20056;-52
2022/12/27 09:23:59;;;;;;;14.40;5.82;;;;;;;3.06;100.00;102311.44;5071473;28;20131;-52
2022/12/27 09:26:29;;;;;;;15.82;6.10;;;;;;;3.09;100.00;102308.81;5068820;28;20052;-50
2022/12/27 09:28:57;;;;;;;16.95;6.70;;;;;;;3.15;100.00;102318.28;5070341;28;20048;-51
2022/12/27 09:31:27;;;;;;;16.25;6.35;;;;;;;3.18;100.00;102320.88;5072318;28;20045;-50
2022/12/27 09:33:56;;;;;;;20.75;6.72;;;;;;;3.21;100.00;102324.28;5070861;28;20036;-50
2022/12/27 09:36:27;;;;;;;18.48;6.55;;;;;;;3.20;100.00;102330.38;5072316;28;20051;-54
2022/12/27 09:38:57;;;;;;;12.20;5.60;;;;;;;3.22;100.00;102327.75;5070796;28;20452;-53
2022/12/27 09:41:40;;;;;;;10.90;5.53;;;;;;;3.28;100.00;102326.81;5068463;28;20044;-51
2022/12/27 09:44:34;;;;;;;15.73;7.18;;;;;;;3.38;100.00;102325.81;5071324;28;20056;-49
2022/12/27 09:47:11;;;;;;;12.55;5.57;;;;;;;3.37;100.00;102329.31;5070724;28;20098;-51
2022/12/27 09:49:43;;;;;;;14.20;6.03;;;;;;;3.41;100.00;102324.94;5068843;28;20056;-49
2022/12/27 09:52:17;;;;;;;12.00;5.60;;;;;;;3.44;100.00;102328.38;5070844;28;20048;-49
2022/12/27 09:54:55;;;;;;;11.90;6.55;;;;;;;3.51;100.00;102343.00;5068615;28;20057;-51
2022/12/27 09:57:36;;;;;;;12.95;6.03;;;;;;;3.54;100.00;102337.81;5068667;28;20044;-51
2022/12/27 10:00:12;;;;;;;14.80;6.75;;;;;;;3.62;100.00;102337.69;5071882;28;20111;-52
2022/12/27 10:02:43;;;;;;;18.13;7.80;;;;;;;3.58;100.00;102340.34;5071990;28;20040;-49
2022/12/27 10:05:20;;;;;;;16.92;7.00;;;;;;;3.62;100.00;102337.69;5071749;28;20044;-50
2022/12/27 10:08:03;;;;;;;15.15;6.53;;;;;;;3.64;100.00;102342.88;5074284;28;20048;-51
2022/12/27 10:10:42;;;;;;;14.63;5.68;;;;;;;3.66;100.00;102351.53;5072092;28;20513;-48
2022/12/27 10:13:25;;;;;;;15.93;6.50;;;;;;;3.76;100.00;102347.06;5074381;28;20072;-48
2022/12/27 10:16:04;;;;;;;16.98;6.65;;;;;;;3.75;100.00;102353.16;5075707;28;20044;-49
2022/12/27 10:18:44;;;;;;;17.55;6.90;;;;;;;3.78;100.00;102353.13;5108048;28;20048;-48
2022/12/27 10:21:20;;;;;;;11.52;6.57;;;;;;;3.84;100.00;102351.28;5075296;28;20090;-50
2022/12/27 10:23:55;;;;;;;16.95;7.80;;;;;;;3.80;100.00;102364.38;5074976;28;20064;-47
2022/12/27 10:26:24;;;;;;;19.23;7.72;;;;;;;3.82;100.00;102360.88;5072198;28;20056;-51
2022/12/27 10:28:58;;;;;;;16.00;7.30;;;;;;;3.88;100.00;102365.13;5073261;28;20379;-51
2022/12/27 10:31:28;;;;;;;14.82;7.43;;;;;;;3.95;100.00;102364.16;5075338;28;20483;-51
2022/12/27 10:33:57;;;;;;;17.63;7.95;;;;;;;3.95;100.00;102358.09;5073978;28;20040;-49
2022/12/27 10:36:27;;;;;;;20.23;8.85;;;;;;;4.01;100.00;102350.22;5075056;28;20048;-51
2022/12/27 10:38:56;;;;;;;14.82;9.05;;;;;;;4.05;100.00;102346.69;5071962;28;20083;-50
2022/12/27 10:41:33;;;;;;;15.90;8.55;;;;;;;4.05;100.00;102349.31;5072530;28;20048;-50
2022/12/27 10:44:01;;;;;;;16.85;9.70;;;;;;;4.14;100.00;102350.91;5073420;28;20056;-48
2022/12/27 10:46:32;;;;;;;19.85;9.95;;;;;;;4.15;100.00;102339.63;5069722;28;20089;-48
2022/12/27 10:49:03;;;;;;;18.67;8.80;;;;;;;4.19;100.00;102349.09;5074039;28;20097;-52
2022/12/27 10:51:51;;;;;;;14.57;8.38;;;;;;;4.21;100.00;102343.00;5074939;28;20045;-50
2022/12/27 10:54:24;;;;;;;16.98;8.40;;;;;;;4.28;100.00;102343.78;5074796;28;20044;-52
2022/12/27 10:56:52;;;;;;;16.08;8.95;;;;;;;4.36;100.00;102341.91;5074674;28;20060;-52
2022/12/27 10:59:23;;;;;;;12.43;8.25;;;;;;;4.37;100.00;102340.16;5074477;28;20395;-53
2022/12/27 11:02:14;;;;;;;19.83;8.57;;;;;;;4.42;100.00;102342.66;5074591;28;20048;-55
2022/12/27 11:04:57;;;;;;;17.70;7.70;;;;;;;4.48;100.00;102342.59;5074615;28;20044;-56
2022/12/27 11:07:29;;;;;;;;;;;;;;;4.55;100.00;102339.88;5073815;28;20117;-56
2022/12/27 11:10:08;;;;;;;15.63;7.22;;;;;;;4.61;100.00;102343.25;5074372;28;20014;-57
2022/12/27 11:12:37;;;;;;;15.77;7.40;;;;;;;4.64;100.00;102341.47;5074309;28;20506;-57
2022/12/27 11:15:17;;;;;;;16.58;6.82;;;;;;;4.72;100.00;102343.94;5073947;28;20041;-57
2022/12/27 11:17:47;;;;;;;13.88;6.75;;;;;;;4.83;100.00;102341.16;5073159;28;20053;-58
2022/12/27 11:20:22;;;;;;;15.20;7.18;;;;;;;4.84;100.00;102345.47;5073825;28;20060;-58
2022/12/27 11:22:53;;;;;;;14.23;6.30;;;;;;;4.87;100.00;102341.06;5073680;28;20454;-57
2022/12/27 11:25:28;;;;;;;14.98;6.50;;;;;;;4.94;100.00;102340.97;5072663;28;20044;-57
2022/12/27 11:28:00;;;;;;;14.10;6.97;;;;;;;4.99;100.00;102333.91;5071447;28;20517;-57
2022/12/27 11:30:32;;;;;;;15.40;7.25;;;;;;;5.03;100.00;102332.97;5073730;28;20052;-57
2022/12/27 11:33:03;;;;;;;13.88;5.93;;;;;;;5.04;100.00;102324.25;5074095;28;20057;-57
2022/12/27 11:35:36;;;;;;;14.88;6.35;;;;;;;5.04;100.00;102325.13;5072813;28;20511;-57
2022/12/27 11:38:05;;;;;;;15.02;6.15;;;;;;;5.11;100.00;102325.88;5074460;28;20102;-57
2022/12/27 11:40:34;;;;;;;10.25;5.10;;;;;;;5.07;100.00;102325.06;5074067;28;20430;-58
2022/12/27 11:43:08;;;;;;;12.82;5.35;;;;;;;5.06;100.00;102320.75;5073820;28;20060;-58
2022/12/27 11:45:42;;;;;;;11.38;5.05;;;;;;;5.08;100.00;102308.56;5072450;28;20098;-58
2022/12/27 11:48:23;;;;;;;11.73;5.10;;;;;;;5.10;100.00;102310.25;5073998;28;20063;-58
2022/12/27 11:51:03;;;;;;;11.38;4.95;;;;;;;5.13;100.00;102303.22;5072134;28;20056;-57
2022/12/27 11:53:53;;;;;;;9.20;4.50;;;;;;;5.15;100.00;102305.81;5070828;28;20059;-58
2022/12/27 11:56:27;;;;;;;11.85;4.90;;;;;;;5.17;100.00;102302.28;5073605;28;20044;-58
2022/12/27 11:59:21;;;;;;;11.70;4.78;;;;;;;5.18;100.00;102304.00;5073441;28;20048;-57
2022/12/27 12:02:06;;;;;;;12.23;4.85;;;;;;;5.20;100.00;102304.81;5073465;28;20048;-58
2022/12/27 12:05:07;;;;;;;12.07;4.95;;;;;;;5.30;100.00;102308.09;5073357;28;20444;-58
2022/12/27 12:07:53;;;;;;;14.40;4.93;;;;;;;5.31;100.00;102302.00;5073295;28;20044;-58
2022/12/27 12:10:34;;;;;;;16.35;4.80;;;;;;;5.38;100.00;102300.13;5071319;28;20561;-58
2022/12/27 12:13:17;;;;;;;12.25;4.45;;;;;;;5.45;100.00;102296.50;5071184;28;20430;-57
2022/12/27 12:16:02;;;;;;;13.25;4.32;;;;;;;5.47;100.00;102286.91;5071723;28;20106;-57
2022/12/27 12:18:55;;;;;;;12.35;4.28;;;;;;;5.48;100.00;102280.81;5068936;28;20094;-51
2022/12/27 12:21:33;;;;;;;10.63;3.80;;;;;;;5.53;100.00;102276.34;5073307;28;20128;-51
2022/12/27 12:24:36;;;;;;;10.15;4.15;;;;;;;5.56;100.00;102284.13;5071031;28;20045;-50
2022/12/27 12:27:27;;;;;;;14.52;4.05;;;;;;;5.62;100.00;102284.84;5068377;28;20040;-47
2022/12/27 12:30:12;;;;;;;9.77;3.33;;;;;;;5.64;100.00;102275.25;5072284;28;20053;-49
2022/12/27 12:32:56;;;;;;;11.30;3.78;;;;;;;5.76;100.00;102281.06;5072340;28;20523;-48
2022/12/27 12:35:35;;;;;;;13.13;4.28;;;;;;;5.82;100.00;102279.22;5072277;28;20048;-50
2022/12/27 12:38:12;;;;;;;13.35;4.15;;;;;;;5.88;100.00;102276.47;5073007;28;20049;-51
2022/12/27 12:40:54;;;;;;;14.48;3.75;;;;;;;6.00;100.00;102275.34;5072686;28;20068;-50
2022/12/27 12:43:43;;;;;;;9.32;3.38;;;;;;;6.09;100.00;102269.91;5072362;28;20060;-51
2022/12/27 12:46:24;;;;;;;10.93;3.63;;;;;;;6.14;100.00;102275.91;5072544;28;20049;-52
2022/12/27 12:49:21;;;;;;;12.00;3.58;;;;;;;6.21;100.00;102267.00;5072695;28;20044;-51
2022/12/27 12:52:05;;;;;;;10.35;2.97;;;;;;;6.25;100.00;102252.13;5069898;28;20499;-50
2022/12/27 12:55:03;;;;;;;10.38;3.72;;;;;;;6.27;100.00;102255.53;5069912;28;20048;-51
2022/12/27 12:57:45;;;;;;;7.80;3.03;;;;;;;6.23;100.00;102252.16;5070308;28;20048;-50
2022/12/27 13:00:42;;;;;;;9.32;3.67;;;;;;;6.31;100.00;102248.50;5069331;28;20051;-50
2022/12/27 13:03:50;;;;;;;10.32;3.10;;;;;;;6.31;100.00;102248.50;5072467;28;20060;-48
2022/12/27 13:06:38;;;;;;;7.82;2.88;;;;;;;6.18;100.00;102240.97;5066228;28;20048;-50
2022/12/27 13:09:20;;;;;;;8.05;2.70;;;;;;;6.23;100.00;102239.09;5072341;28;20113;-50
2022/12/27 13:11:55;;;;;;;6.63;2.92;;;;;;;6.25;100.00;102239.06;5070128;28;20094;-52
2022/12/27 13:14:48;;;;;;;11.48;3.45;;;;;;;6.22;100.00;102232.16;5069397;28;20601;-51
2022/12/27 13:17:22;;;;;;;11.70;3.13;;;;;;;6.19;100.00;102223.53;5071895;28;20049;-51
2022/12/27 13:20:05;;;;;;;11.52;3.20;;;;;;;6.15;100.00;102222.75;5070648;28;20060;-52
2022/12/27 13:22:47;;;;;;;9.95;3.90;;;;;;;6.17;100.00;102220.09;5069920;28;20052;-50
2022/12/27 13:25:24;;;;;;;9.48;3.25;;;;;;;6.18;100.00;102204.41;5068478;28;20102;-51
2022/12/27 13:28:02;;;;;;;12.43;3.40;;;;;;;6.19;100.00;102200.88;5072318;28;20052;-51